createdAt,value
2022-07-31T00:00:25.526Z,50.40
2022-07-31T00:02:52.172Z,50.40
2022-07-31T00:05:18.924Z,50.40
2022-07-31T00:07:45.834Z,50.60
2022-07-31T00:10:12.776Z,50.40
2022-07-31T00:12:39.540Z,50.30
2022-07-31T00:15:08.201Z,50.40
2022-07-31T00:17:34.990Z,50.50
2022-07-31T00:20:02.043Z,50.60
2022-07-31T00:22:28.987Z,50.50
2022-07-31T00:24:55.786Z,50.40
2022-07-31T00:27:23.526Z,50.50
2022-07-31T00:29:50.758Z,50.70
2022-07-31T00:32:17.482Z,50.90
2022-07-31T00:34:44.195Z,50.90
2022-07-31T00:37:10.884Z,50.90
2022-07-31T00:39:38.348Z,51.00
2022-07-31T00:42:05.769Z,51.00
2022-07-31T00:44:32.485Z,50.90
2022-07-31T00:46:59.097Z,50.70
2022-07-31T00:49:37.718Z,50.70
2022-07-31T00:52:05.381Z,50.80
2022-07-31T00:54:32.468Z,50.80
2022-07-31T00:56:59.167Z,51.00
2022-07-31T00:59:28.307Z,50.80
2022-07-31T01:01:55.175Z,51.00
2022-07-31T01:04:21.901Z,50.90
2022-07-31T01:06:49.307Z,51.10
2022-07-31T01:09:16.748Z,51.00
2022-07-31T01:12:08.449Z,51.00
2022-07-31T01:14:40.202Z,51.20
2022-07-31T01:17:08.779Z,51.10
2022-07-31T01:19:47.625Z,51.10
2022-07-31T01:22:33.338Z,51.30
2022-07-31T01:25:23.418Z,50.80
2022-07-31T01:28:08.837Z,50.70
2022-07-31T01:31:25.968Z,51.10
2022-07-31T01:34:01.251Z,50.20
2022-07-31T01:36:34.771Z,51.30
2022-07-31T01:39:02.425Z,51.50
2022-07-31T01:41:34.780Z,51.10
2022-07-31T01:44:05.292Z,51.50
2022-07-31T01:46:37.496Z,51.30
2022-07-31T01:49:09.739Z,51.50
2022-07-31T01:51:39.053Z,51.50
2022-07-31T01:54:06.396Z,51.70
2022-07-31T01:56:34.535Z,51.50
2022-07-31T01:59:02.316Z,51.40
2022-07-31T02:01:30.602Z,51.50
2022-07-31T02:04:00.397Z,51.70
2022-07-31T02:06:28.248Z,51.40
2022-07-31T02:08:56.372Z,51.60
2022-07-31T02:11:23.675Z,51.60
2022-07-31T02:13:52.086Z,51.50
2022-07-31T02:16:20.268Z,51.50
2022-07-31T02:18:50.660Z,51.80
2022-07-31T02:21:17.552Z,52.00
2022-07-31T02:23:44.263Z,51.70
2022-07-31T02:26:11.828Z,51.80
2022-07-31T02:28:41.925Z,51.90
2022-07-31T02:31:11.637Z,51.90
2022-07-31T02:33:42.031Z,51.70
2022-07-31T02:36:11.518Z,51.70
2022-07-31T02:38:40.741Z,51.70
2022-07-31T02:41:09.628Z,52.00
2022-07-31T02:43:36.950Z,51.80
2022-07-31T02:46:04.455Z,51.80
2022-07-31T02:48:31.934Z,51.80
2022-07-31T02:50:59.225Z,51.50
2022-07-31T02:53:27.025Z,51.70
2022-07-31T02:55:54.732Z,51.70
2022-07-31T02:58:21.424Z,51.90
2022-07-31T03:00:48.758Z,51.70
2022-07-31T03:03:15.607Z,51.90
2022-07-31T03:05:42.321Z,52.00
2022-07-31T03:08:09.233Z,52.00
2022-07-31T03:10:35.936Z,52.00
2022-07-31T03:13:03.901Z,51.80
2022-07-31T03:15:32.107Z,51.60
2022-07-31T03:17:59.330Z,51.80
2022-07-31T03:20:27.250Z,52.10
2022-07-31T03:22:54.425Z,52.20
2022-07-31T03:25:22.118Z,52.20
2022-07-31T03:27:56.775Z,52.10
2022-07-31T03:30:25.158Z,52.30
2022-07-31T03:32:53.243Z,52.10
2022-07-31T03:35:20.353Z,52.10
2022-07-31T03:37:47.007Z,52.10
2022-07-31T03:40:14.148Z,52.20
2022-07-31T03:42:41.266Z,52.20
2022-07-31T03:45:10.858Z,52.20
2022-07-31T03:47:37.733Z,52.20
2022-07-31T03:50:06.085Z,52.10
2022-07-31T03:52:32.893Z,52.00
2022-07-31T03:54:59.764Z,51.20
2022-07-31T03:57:31.093Z,51.90
2022-07-31T04:00:00.757Z,51.40
2022-07-31T04:02:28.265Z,51.80
2022-07-31T04:04:55.433Z,51.80
2022-07-31T04:07:22.132Z,52.30
2022-07-31T04:09:49.187Z,52.00
2022-07-31T04:12:16.321Z,51.60
2022-07-31T04:14:43.531Z,52.10
2022-07-31T04:17:10.305Z,51.40
2022-07-31T04:19:37.007Z,52.00
2022-07-31T04:22:04.368Z,52.30
2022-07-31T04:24:31.246Z,52.40
2022-07-31T04:26:58.297Z,52.30
2022-07-31T04:29:28.600Z,52.60
2022-07-31T04:31:55.851Z,52.70
2022-07-31T04:34:22.679Z,52.50
2022-07-31T04:36:49.464Z,52.20
2022-07-31T04:39:16.131Z,52.30
2022-07-31T04:41:43.047Z,52.80
2022-07-31T04:44:10.487Z,52.80
2022-07-31T04:46:37.364Z,52.60
2022-07-31T04:49:04.280Z,52.20
2022-07-31T04:51:31.137Z,52.50
2022-07-31T04:53:57.969Z,52.60
2022-07-31T04:56:43.113Z,52.60
2022-07-31T04:59:12.677Z,52.60
2022-07-31T05:01:41.684Z,53.10
2022-07-31T05:04:09.684Z,52.50
2022-07-31T05:06:44.408Z,52.30
2022-07-31T05:09:18.349Z,52.60
2022-07-31T05:11:47.142Z,49.20
2022-07-31T05:14:15.344Z,51.90
2022-07-31T05:16:42.012Z,52.80
2022-07-31T05:19:13.616Z,53.00
2022-07-31T05:21:47.008Z,52.20
2022-07-31T05:24:32.583Z,52.80
2022-07-31T05:27:01.481Z,52.50
2022-07-31T05:29:28.143Z,52.80
2022-07-31T05:32:00.326Z,52.60
2022-07-31T05:34:31.121Z,52.80
2022-07-31T05:37:01.929Z,53.10
2022-07-31T05:39:29.365Z,52.80
2022-07-31T05:41:55.976Z,52.40
2022-07-31T05:44:22.660Z,52.50
2022-07-31T05:49:15.937Z,52.70
2022-07-31T05:51:46.745Z,52.80
2022-07-31T05:54:14.339Z,53.10
2022-07-31T05:56:41.082Z,52.30
2022-07-31T05:59:07.884Z,52.30
2022-07-31T06:01:34.587Z,52.70
2022-07-31T06:04:02.509Z,52.90
2022-07-31T06:06:29.195Z,53.00
2022-07-31T06:08:58.436Z,52.40
2022-07-31T06:11:28.876Z,52.90
2022-07-31T06:13:55.503Z,52.80
2022-07-31T06:16:22.133Z,53.10
2022-07-31T06:18:48.837Z,53.50
2022-07-31T06:23:41.000Z,53.10
2022-07-31T06:26:08.309Z,53.40
2022-07-31T06:28:47.653Z,52.90
2022-07-31T06:31:22.588Z,53.10
2022-07-31T06:33:50.848Z,53.30
2022-07-31T06:36:18.625Z,53.60
2022-07-31T06:38:46.024Z,52.50
2022-07-31T06:41:33.193Z,52.80
2022-07-31T06:43:59.829Z,53.00
2022-07-31T06:46:26.585Z,53.00
2022-07-31T06:48:53.308Z,53.40
2022-07-31T06:51:30.899Z,52.90
2022-07-31T06:54:02.130Z,53.20
2022-07-31T06:56:29.744Z,54.00
2022-07-31T06:58:56.892Z,53.80
2022-07-31T07:01:23.613Z,54.10
2022-07-31T07:03:50.344Z,53.40
2022-07-31T07:06:17.092Z,53.20
2022-07-31T07:08:43.756Z,52.80
2022-07-31T07:11:12.397Z,53.00
2022-07-31T07:13:45.681Z,52.00
2022-07-31T07:16:13.633Z,52.40
2022-07-31T07:18:40.321Z,52.20
2022-07-31T07:21:07.170Z,51.80
2022-07-31T07:23:33.871Z,52.10
2022-07-31T07:26:00.523Z,52.50
2022-07-31T07:28:30.262Z,52.10
2022-07-31T07:30:58.488Z,52.00
2022-07-31T07:33:41.711Z,51.60
2022-07-31T07:36:22.368Z,51.70
2022-07-31T07:38:56.016Z,52.20
2022-07-31T07:41:24.453Z,52.40
2022-07-31T07:43:52.394Z,52.10
2022-07-31T07:46:20.967Z,52.20
2022-07-31T07:48:47.598Z,51.30
2022-07-31T07:51:14.300Z,51.40
2022-07-31T07:53:40.953Z,51.90
2022-07-31T07:56:07.775Z,52.50
2022-07-31T07:58:34.590Z,51.70
2022-07-31T08:01:01.564Z,51.40
2022-07-31T08:03:50.377Z,50.90
2022-07-31T08:06:14.856Z,51.50
2022-07-31T08:08:41.453Z,50.70
2022-07-31T08:11:08.112Z,50.80
2022-07-31T08:13:34.727Z,50.40
2022-07-31T08:16:02.185Z,50.00
2022-07-31T08:18:29.887Z,50.10
2022-07-31T08:20:56.504Z,50.90
2022-07-31T08:23:23.215Z,50.30
2022-07-31T08:25:49.894Z,48.90
2022-07-31T08:28:19.485Z,50.10
2022-07-31T08:30:50.825Z,49.80
2022-07-31T08:33:17.494Z,49.80
2022-07-31T08:35:49.626Z,50.20
2022-07-31T08:38:18.527Z,50.30
2022-07-31T08:40:46.260Z,50.70
2022-07-31T08:46:02.814Z,50.20
2022-07-31T08:48:32.592Z,50.40
2022-07-31T08:51:03.283Z,50.20
2022-07-31T08:53:32.955Z,51.30
2022-07-31T08:56:00.352Z,51.30
2022-07-31T08:58:27.062Z,51.10
2022-07-31T09:00:54.491Z,51.10
2022-07-31T09:03:21.485Z,51.50
2022-07-31T09:05:48.155Z,51.50
2022-07-31T09:08:15.324Z,51.60
2022-07-31T09:10:46.284Z,50.90
2022-07-31T09:13:19.169Z,50.50
2022-07-31T09:15:46.531Z,50.50
2022-07-31T09:18:21.869Z,50.80
2022-07-31T09:21:02.272Z,51.20
2022-07-31T09:23:29.888Z,50.50
2022-07-31T09:26:00.144Z,50.40
2022-07-31T09:28:43.050Z,50.70
2022-07-31T09:31:11.639Z,51.20
2022-07-31T09:33:45.227Z,50.60
2022-07-31T09:36:13.694Z,50.00
2022-07-31T09:38:42.735Z,50.50
2022-07-31T09:41:56.012Z,50.70
2022-07-31T09:44:09.544Z,50.00
2022-07-31T09:46:42.173Z,50.90
2022-07-31T09:49:09.394Z,51.00
2022-07-31T09:51:47.019Z,51.00
2022-07-31T09:54:21.937Z,50.60
2022-07-31T09:56:50.097Z,50.60
2022-07-31T09:59:17.360Z,49.70
2022-07-31T10:01:48.587Z,49.20
2022-07-31T10:04:18.084Z,50.20
2022-07-31T10:06:48.841Z,50.20
2022-07-31T10:09:17.674Z,49.60
2022-07-31T10:11:46.027Z,49.50
2022-07-31T10:14:20.979Z,49.30
2022-07-31T10:16:50.664Z,49.30
2022-07-31T10:19:19.000Z,49.20
2022-07-31T10:21:56.643Z,49.00
2022-07-31T10:24:28.337Z,48.40
2022-07-31T10:27:10.842Z,49.20
2022-07-31T10:29:40.870Z,48.70
2022-07-31T10:32:08.733Z,49.00
2022-07-31T10:34:35.892Z,49.40
2022-07-31T10:37:18.876Z,49.10
2022-07-31T10:40:03.784Z,48.90
2022-07-31T10:42:30.363Z,49.10
2022-07-31T10:45:09.245Z,47.70
2022-07-31T10:47:36.110Z,49.30
2022-07-31T10:50:04.779Z,50.40
2022-07-31T10:52:33.294Z,51.20
2022-07-31T10:55:01.819Z,50.70
2022-07-31T10:57:33.671Z,50.40
2022-07-31T11:00:14.872Z,50.70
2022-07-31T11:02:41.576Z,50.20
2022-07-31T11:05:13.577Z,50.10
2022-07-31T11:07:45.785Z,50.40
2022-07-31T11:10:15.189Z,49.80
2022-07-31T11:12:43.757Z,49.90
2022-07-31T11:15:22.122Z,49.60
2022-07-31T11:18:24.057Z,49.30
2022-07-31T11:20:35.897Z,49.40
2022-07-31T11:23:08.662Z,49.50
2022-07-31T11:25:36.939Z,49.30
2022-07-31T11:28:27.356Z,49.60
2022-07-31T11:30:58.284Z,49.50
2022-07-31T11:33:41.673Z,49.50
2022-07-31T11:36:24.514Z,49.20
2022-07-31T11:38:53.044Z,49.10
2022-07-31T11:41:23.126Z,49.10
2022-07-31T11:43:52.269Z,49.30
2022-07-31T11:46:27.716Z,49.40
2022-07-31T11:48:55.815Z,49.50
2022-07-31T11:51:23.628Z,49.50
2022-07-31T11:53:56.839Z,49.60
2022-07-31T11:56:25.903Z,50.20
2022-07-31T11:58:55.150Z,50.20
2022-07-31T12:01:29.946Z,50.10
2022-07-31T12:04:01.625Z,50.50
2022-07-31T12:06:36.525Z,50.00
2022-07-31T12:09:04.139Z,49.90
2022-07-31T12:11:31.006Z,49.40
2022-07-31T12:13:59.276Z,49.30
2022-07-31T12:16:25.955Z,49.20
2022-07-31T12:19:00.760Z,49.40
2022-07-31T12:21:35.742Z,49.10
2022-07-31T12:24:09.627Z,49.50
2022-07-31T12:26:36.261Z,48.90
2022-07-31T12:29:09.961Z,49.30
2022-07-31T12:31:53.717Z,49.50
2022-07-31T12:34:31.681Z,49.60
2022-07-31T12:37:02.013Z,49.60
2022-07-31T12:39:54.084Z,49.50
2022-07-31T12:42:30.473Z,49.60
2022-07-31T12:45:01.050Z,49.20
2022-07-31T12:47:45.620Z,49.20
2022-07-31T12:50:18.092Z,49.20
2022-07-31T12:52:45.251Z,49.00
2022-07-31T12:55:17.142Z,48.70
2022-07-31T12:57:50.391Z,48.60
2022-07-31T13:00:19.483Z,48.30
2022-07-31T13:02:46.201Z,48.10
2022-07-31T13:05:16.176Z,48.00
2022-07-31T13:07:42.821Z,47.90
2022-07-31T13:10:19.981Z,47.90
2022-07-31T13:12:50.916Z,47.90
2022-07-31T13:15:31.119Z,47.60
2022-07-31T13:18:05.396Z,48.00
2022-07-31T13:20:39.672Z,48.00
2022-07-31T13:23:06.297Z,48.20
2022-07-31T13:25:32.997Z,48.10
2022-07-31T13:27:59.940Z,48.20
2022-07-31T13:30:28.251Z,48.40
2022-07-31T13:32:54.861Z,48.20
2022-07-31T13:35:28.255Z,48.50
2022-07-31T13:37:56.127Z,48.30
2022-07-31T13:40:42.900Z,48.40
2022-07-31T13:43:09.901Z,48.30
2022-07-31T13:45:36.607Z,48.00
2022-07-31T13:48:08.709Z,48.10
2022-07-31T13:50:40.226Z,48.10
2022-07-31T13:53:07.209Z,47.70
2022-07-31T13:55:33.867Z,47.70
2022-07-31T13:58:01.213Z,47.30
2022-07-31T14:00:29.665Z,47.60
2022-07-31T14:02:57.143Z,47.30
2022-07-31T14:05:26.452Z,47.60
2022-07-31T14:07:55.943Z,47.70
2022-07-31T14:10:23.152Z,47.90
2022-07-31T14:12:50.442Z,47.60
2022-07-31T14:15:28.595Z,47.00
2022-07-31T14:17:56.873Z,47.80
2022-07-31T14:20:23.674Z,47.50
2022-07-31T14:22:50.357Z,47.60
2022-07-31T14:25:17.420Z,47.70
2022-07-31T14:27:45.792Z,47.70
2022-07-31T14:30:15.079Z,48.00
2022-07-31T14:32:47.404Z,48.10
2022-07-31T14:35:14.786Z,47.80
2022-07-31T14:37:44.402Z,48.80
2022-07-31T14:40:14.267Z,48.90
2022-07-31T14:42:43.424Z,49.40
2022-07-31T14:45:11.248Z,49.20
2022-07-31T14:47:40.829Z,49.60
2022-07-31T14:50:12.013Z,49.60
2022-07-31T14:52:40.435Z,49.90
2022-07-31T14:55:07.703Z,49.40
2022-07-31T14:57:34.367Z,49.50
2022-07-31T15:00:01.608Z,50.20
2022-07-31T15:02:28.420Z,49.10
2022-07-31T15:04:55.410Z,49.90
2022-07-31T15:07:43.808Z,49.60
2022-07-31T15:10:12.340Z,49.90
2022-07-31T15:12:39.588Z,49.50
2022-07-31T15:15:07.619Z,50.20
2022-07-31T15:17:34.421Z,50.30
2022-07-31T15:20:03.826Z,49.50
2022-07-31T15:22:30.759Z,49.50
2022-07-31T15:24:57.450Z,50.30
2022-07-31T15:27:24.912Z,49.70
2022-07-31T15:30:03.612Z,50.30
2022-07-31T15:32:33.237Z,49.60
2022-07-31T15:34:59.903Z,49.90
2022-07-31T15:37:26.542Z,50.20
2022-07-31T15:40:02.613Z,50.40
2022-07-31T15:42:33.970Z,50.70
2022-07-31T15:45:00.938Z,50.60
2022-07-31T15:47:27.620Z,51.10
2022-07-31T15:49:54.330Z,51.20
2022-07-31T15:52:21.120Z,50.20
2022-07-31T15:54:51.708Z,50.10
2022-07-31T15:57:21.103Z,51.30
2022-07-31T15:59:48.580Z,52.10
2022-07-31T16:02:15.304Z,51.10
2022-07-31T16:04:52.793Z,51.50
2022-07-31T16:08:30.359Z,51.30
2022-07-31T16:10:15.299Z,51.80
2022-07-31T16:12:46.796Z,51.00
2022-07-31T16:15:14.197Z,50.80
2022-07-31T16:17:41.418Z,51.10
2022-07-31T16:20:25.593Z,50.90
2022-07-31T16:22:55.840Z,52.20
2022-07-31T16:25:23.827Z,52.00
2022-07-31T16:27:50.581Z,51.50
2022-07-31T16:30:17.260Z,51.90
2022-07-31T16:32:44.184Z,52.00
2022-07-31T16:35:11.927Z,51.30
2022-07-31T16:37:52.222Z,50.70
2022-07-31T16:40:28.245Z,50.70
2022-07-31T16:42:56.368Z,51.60
2022-07-31T16:45:23.264Z,51.20
2022-07-31T16:47:53.042Z,51.30
2022-07-31T16:50:22.292Z,51.60
2022-07-31T16:52:56.050Z,51.00
2022-07-31T16:55:59.620Z,51.40
2022-07-31T16:58:18.941Z,50.90
2022-07-31T17:00:51.768Z,50.90
2022-07-31T17:03:58.779Z,51.20
2022-07-31T17:06:03.751Z,51.10
2022-07-31T17:08:35.976Z,50.00
2022-07-31T17:14:01.907Z,51.60
2022-07-31T17:16:31.042Z,50.80
2022-07-31T17:18:57.960Z,52.00
2022-07-31T17:21:32.110Z,52.50
2022-07-31T17:23:59.709Z,49.20
2022-07-31T17:26:26.544Z,51.70
2022-07-31T17:29:02.417Z,52.30
2022-07-31T17:31:29.094Z,53.20
2022-07-31T17:34:00.015Z,53.00
2022-07-31T17:36:28.933Z,52.70
2022-07-31T17:38:56.889Z,52.90
2022-07-31T17:41:25.256Z,52.70
2022-07-31T17:43:55.932Z,52.40
2022-07-31T17:46:28.313Z,52.80
2022-07-31T17:49:11.565Z,52.90
2022-07-31T17:51:57.558Z,53.40
2022-07-31T17:54:27.986Z,52.70
2022-07-31T17:56:54.668Z,53.60
2022-07-31T17:59:23.952Z,54.00
2022-07-31T18:01:59.449Z,54.10
2022-07-31T18:04:27.585Z,53.50
2022-07-31T18:06:54.995Z,53.30
2022-07-31T18:09:23.505Z,53.60
2022-07-31T18:11:54.274Z,53.20
2022-07-31T18:14:24.204Z,52.50
2022-07-31T18:16:51.887Z,53.00
2022-07-31T18:19:18.720Z,53.60
2022-07-31T18:21:45.354Z,53.50
2022-07-31T18:24:11.978Z,52.60
2022-07-31T18:26:39.075Z,53.30
2022-07-31T18:29:06.063Z,53.90
2022-07-31T18:31:35.480Z,53.90
2022-07-31T18:34:04.149Z,53.90
2022-07-31T18:36:31.882Z,53.60
2022-07-31T18:38:58.654Z,53.10
2022-07-31T18:44:21.996Z,53.20
2022-07-31T18:46:49.065Z,53.90
2022-07-31T18:51:01.287Z,53.80
2022-07-31T18:52:03.283Z,53.20
2022-07-31T18:54:30.373Z,54.50
2022-07-31T18:56:57.112Z,54.00
2022-07-31T18:59:23.877Z,53.80
2022-07-31T19:01:50.518Z,53.70
2022-07-31T19:04:17.187Z,54.00
2022-07-31T19:06:45.071Z,54.10
2022-07-31T19:09:11.865Z,53.90
2022-07-31T19:11:38.477Z,54.00
2022-07-31T19:14:05.163Z,54.30
2022-07-31T19:16:31.844Z,53.90
2022-07-31T19:18:59.422Z,54.30
2022-07-31T19:21:42.559Z,54.30
2022-07-31T19:24:09.777Z,54.00
2022-07-31T19:26:39.000Z,54.80
2022-07-31T19:29:05.686Z,54.20
2022-07-31T19:31:32.404Z,54.30
2022-07-31T19:33:59.198Z,54.50
2022-07-31T19:36:25.936Z,54.70
2022-07-31T19:38:52.598Z,55.20
2022-07-31T19:41:20.853Z,54.50
2022-07-31T19:43:47.618Z,53.60
2022-07-31T19:46:14.399Z,54.90
2022-07-31T19:48:43.401Z,53.40
2022-07-31T19:51:11.025Z,54.40
2022-07-31T19:53:38.061Z,55.20
2022-07-31T19:56:06.146Z,54.80
2022-07-31T19:58:34.576Z,54.90
2022-07-31T20:01:02.310Z,55.50
2022-07-31T20:03:29.497Z,55.30
2022-07-31T20:05:56.747Z,55.00
2022-07-31T20:08:23.783Z,55.20
2022-07-31T20:10:50.534Z,55.20
2022-07-31T20:13:18.447Z,54.60
2022-07-31T20:15:52.166Z,54.50
2022-07-31T20:18:29.783Z,55.90
2022-07-31T20:21:03.563Z,52.00
2022-07-31T20:23:31.041Z,54.70
2022-07-31T20:25:57.892Z,54.50
2022-07-31T20:28:26.631Z,55.30
2022-07-31T20:30:53.565Z,55.30
2022-07-31T20:33:20.389Z,54.70
2022-07-31T20:35:49.428Z,55.30
2022-07-31T20:38:25.789Z,54.60
2022-07-31T20:40:55.648Z,54.70
2022-07-31T20:43:24.577Z,55.40
2022-07-31T20:45:51.504Z,55.70
2022-07-31T20:48:18.188Z,54.70
2022-07-31T20:50:47.752Z,55.60
2022-07-31T20:53:15.507Z,55.60
2022-07-31T20:55:46.625Z,56.10
2022-07-31T20:58:13.681Z,55.90
2022-07-31T21:00:41.014Z,56.00
2022-07-31T21:03:07.650Z,55.90
2022-07-31T21:05:34.284Z,55.70
2022-07-31T21:08:01.041Z,55.50
2022-07-31T21:10:29.683Z,55.90
2022-07-31T21:12:57.129Z,55.80
2022-07-31T21:15:40.774Z,56.20
2022-07-31T21:18:16.779Z,56.00
2022-07-31T21:20:52.341Z,56.40
2022-07-31T21:23:21.958Z,56.10
2022-07-31T21:25:48.974Z,56.00
2022-07-31T21:28:15.802Z,55.10
2022-07-31T21:30:42.641Z,54.80
2022-07-31T21:33:09.839Z,56.00
2022-07-31T21:35:39.078Z,56.30
2022-07-31T21:38:10.297Z,56.30
2022-07-31T21:40:38.786Z,55.80
2022-07-31T21:43:05.758Z,56.10
2022-07-31T21:45:49.637Z,55.80
2022-07-31T21:48:20.914Z,56.00
2022-07-31T21:50:47.708Z,56.20
2022-07-31T21:53:14.412Z,55.90
2022-07-31T21:55:41.244Z,56.20
2022-07-31T21:58:08.992Z,56.40
2022-07-31T22:00:36.668Z,56.50
2022-07-31T22:03:04.568Z,55.90
2022-07-31T22:05:50.528Z,56.30
2022-07-31T22:08:17.848Z,56.60
2022-07-31T22:10:44.875Z,56.50
2022-07-31T22:13:11.935Z,56.50
2022-07-31T22:15:51.333Z,56.50
2022-07-31T22:18:27.081Z,56.50
2022-07-31T22:20:54.069Z,56.70
2022-07-31T22:23:21.092Z,56.80
2022-07-31T22:25:51.115Z,56.50
2022-07-31T22:28:19.940Z,56.40
2022-07-31T22:30:47.299Z,56.60
2022-07-31T22:33:14.297Z,56.80
2022-07-31T22:35:41.097Z,56.90
2022-07-31T22:38:08.541Z,56.90
2022-07-31T22:40:35.439Z,56.90
2022-07-31T22:43:03.306Z,57.00
2022-07-31T22:45:30.401Z,56.50
2022-07-31T22:47:57.944Z,56.80
2022-07-31T22:50:25.164Z,56.50
2022-07-31T22:52:52.749Z,56.70
2022-07-31T22:55:19.942Z,56.70
2022-07-31T22:57:46.651Z,56.40
2022-07-31T23:00:15.034Z,56.60
2022-07-31T23:02:43.203Z,56.60
2022-07-31T23:05:10.535Z,56.60
2022-07-31T23:07:37.807Z,56.40
2022-07-31T23:10:08.532Z,56.40
2022-07-31T23:12:35.436Z,56.40
2022-07-31T23:15:02.225Z,56.30
2022-07-31T23:17:28.953Z,56.30
2022-07-31T23:19:56.056Z,56.10
2022-07-31T23:22:33.305Z,56.20
2022-07-31T23:25:05.723Z,56.30
2022-07-31T23:27:33.430Z,56.40
2022-07-31T23:30:00.516Z,56.10
2022-07-31T23:32:28.266Z,55.70
2022-07-31T23:34:55.019Z,55.50
2022-07-31T23:37:21.662Z,55.60
2022-07-31T23:39:48.331Z,55.50
2022-07-31T23:42:33.607Z,55.40
2022-07-31T23:45:00.282Z,55.50
2022-07-31T23:47:45.239Z,55.80
2022-07-31T23:50:14.281Z,55.70
2022-07-31T23:52:41.520Z,55.80
2022-07-31T23:55:08.710Z,55.70
2022-07-31T23:57:36.234Z,55.90
